Time;durP1;ratioP1;P1;durP2;ratioP2;P2;SDS_P1;SDS_P2;PMS_P1;PMS_P2;Temp;Humidity;BMP_temperature;BMP_pressure;BME280_temperature;BME280_humidity;BME280_pressure;Samples;Min_cycle;Max_cycle;Signal;HPM_P1;HPM_P2
2022/01/03 00:00:53;;;;;;;7.83;3.83;;;9.40;99.90;;;;;;5043932;28;20230;-56
2022/01/03 00:03:20;;;;;;;14.17;4.23;;;9.40;99.90;;;;;;5029823;28;20211;-56
2022/01/03 00:05:47;;;;;;;6.77;3.90;;;9.40;99.90;;;;;;5049987;28;20191;-54
2022/01/03 00:08:14;;;;;;;7.37;3.93;;;9.40;99.90;;;;;;5039781;28;20202;-55
2022/01/03 00:10:41;;;;;;;6.77;4.10;;;9.40;99.90;;;;;;5043626;28;20210;-56
2022/01/03 00:13:10;;;;;;;8.33;4.53;;;9.40;99.90;;;;;;5040129;28;20226;-56
2022/01/03 00:15:36;;;;;;;9.43;5.40;;;9.40;99.90;;;;;;5043422;28;20234;-56
2022/01/03 00:18:04;;;;;;;9.37;5.00;;;9.40;99.90;;;;;;5032896;28;20219;-55
2022/01/03 00:20:31;;;;;;;8.87;5.27;;;9.40;99.90;;;;;;5047395;28;20206;-53
2022/01/03 00:23:02;;;;;;;9.60;5.37;;;9.40;99.90;;;;;;5051955;28;20268;-54
2022/01/03 00:25:31;;;;;;;7.50;5.37;;;9.40;99.90;;;;;;5043536;28;20532;-56
2022/01/03 00:28:05;;;;;;;10.07;5.47;;;9.40;99.90;;;;;;5041666;28;20206;-53
2022/01/03 00:30:37;;;;;;;10.03;5.23;;;9.30;99.90;;;;;;5041666;28;20668;-53
2022/01/03 00:33:05;;;;;;;12.97;5.17;;;9.30;99.90;;;;;;5030916;28;20599;-54
2022/01/03 00:35:34;;;;;;;8.70;4.50;;;9.30;99.90;;;;;;5053200;28;20725;-55
2022/01/03 00:38:01;;;;;;;9.33;5.10;;;9.30;99.90;;;;;;5043182;28;20218;-54
2022/01/03 00:40:29;;;;;;;9.57;4.70;;;9.20;99.90;;;;;;5042002;28;20206;-52
2022/01/03 00:42:55;;;;;;;5.83;3.60;;;9.20;99.90;;;;;;5042539;28;20302;-53
2022/01/03 00:45:22;;;;;;;7.00;3.93;;;9.30;99.90;;;;;;5039474;28;20975;-54
2022/01/03 00:47:50;;;;;;;7.63;3.97;;;9.30;99.90;;;;;;5043344;28;20200;-51
2022/01/03 00:50:21;;;;;;;6.47;3.80;;;9.30;99.90;;;;;;5037454;28;20203;-54
2022/01/03 00:52:48;;;;;;;9.00;3.13;;;9.20;99.90;;;;;;5048406;28;20222;-54
2022/01/03 00:55:15;;;;;;;4.73;2.80;;;9.20;99.90;;;;;;5042655;28;20218;-53
2022/01/03 00:57:55;;;;;;;3.20;2.50;;;9.20;99.90;;;;;;5042783;28;20204;-52
2022/01/03 01:00:22;;;;;;;4.43;2.40;;;9.20;99.90;;;;;;5038833;28;20206;-57
2022/01/03 01:03:01;;;;;;;4.97;2.30;;;9.20;99.90;;;;;;5041818;28;20317;-55
2022/01/03 01:05:28;;;;;;;4.27;1.70;;;9.20;99.90;;;;;;5038579;28;20266;-54
2022/01/03 01:07:57;;;;;;;5.23;1.47;;;9.20;99.90;;;;;;5052816;28;20257;-56
2022/01/03 01:10:29;;;;;;;5.90;2.03;;;9.10;99.90;;;;;;5041270;28;20261;-52
2022/01/03 01:12:57;;;;;;;4.77;2.13;;;9.10;99.90;;;;;;5038057;28;20234;-50
2022/01/03 01:15:27;;;;;;;2.37;1.60;;;9.10;99.90;;;;;;5048210;28;20226;-54
2022/01/03 01:17:57;;;;;;;3.77;1.40;;;;;;;;;;5038346;28;20211;-51
2022/01/03 01:20:25;;;;;;;4.87;1.23;;;9.00;99.90;;;;;;5033211;28;20666;-52
2022/01/03 01:22:54;;;;;;;3.57;0.90;;;9.00;99.90;;;;;;5042926;28;20266;-55
2022/01/03 01:28:09;;;;;;;3.03;1.40;;;8.90;99.90;;;;;;4993526;28;20214;-53
2022/01/03 01:30:36;;;;;;;1.87;1.20;;;8.90;99.90;;;;;;5061999;28;20205;-57
2022/01/03 01:33:08;;;;;;;1.97;1.63;;;8.90;99.90;;;;;;5059480;28;20226;-52
2022/01/03 01:35:41;;;;;;;2.67;1.90;;;8.90;99.90;;;;;;5064354;28;20229;-54
2022/01/03 01:38:09;;;;;;;2.93;1.87;;;8.80;99.90;;;;;;5057355;28;20920;-56
2022/01/03 01:40:44;;;;;;;2.83;1.63;;;8.80;99.90;;;;;;5049049;28;20550;-54
2022/01/03 01:43:13;;;;;;;2.10;1.07;;;8.80;99.90;;;;;;5042489;28;20333;-51
2022/01/03 01:45:42;;;;;;;1.97;1.10;;;8.80;99.90;;;;;;5044797;28;20199;-54
2022/01/03 01:48:13;;;;;;;1.60;1.20;;;8.80;99.90;;;;;;5043225;28;20202;-52
2022/01/03 01:50:41;;;;;;;2.80;1.00;;;8.70;99.90;;;;;;5048875;28;20734;-55
2022/01/03 01:53:10;;;;;;;1.10;0.90;;;8.70;99.90;;;;;;5040101;28;20491;-54
2022/01/03 01:55:42;;;;;;;1.07;0.90;;;8.70;99.90;;;;;;5046730;28;20222;-56
2022/01/03 01:58:22;;;;;;;1.20;1.10;;;8.70;99.90;;;;;;5041911;28;20199;-54
2022/01/03 02:00:58;;;;;;;2.20;1.07;;;8.60;99.90;;;;;;5042474;28;20230;-56
2022/01/03 02:03:40;;;;;;;1.90;0.90;;;8.60;99.90;;;;;;5044770;28;20229;-56
2022/01/03 02:06:30;;;;;;;1.37;1.00;;;8.60;99.90;;;;;;5041402;28;20195;-55
2022/01/03 02:09:08;;;;;;;2.20;1.27;;;8.60;99.90;;;;;;5042949;28;20230;-55
2022/01/03 02:11:49;;;;;;;1.90;1.13;;;8.60;99.90;;;;;;5052778;28;20309;-51
2022/01/03 02:14:17;;;;;;;3.07;1.33;;;8.60;99.90;;;;;;5043299;28;20395;-56
2022/01/03 02:16:44;;;;;;;0.93;0.90;;;8.50;99.90;;;;;;5043082;28;20773;-54
2022/01/03 02:19:13;;;;;;;2.30;1.17;;;8.50;99.90;;;;;;5041914;28;20210;-53
2022/01/03 02:21:41;;;;;;;1.93;1.20;;;8.50;99.90;;;;;;5048189;28;20191;-55
2022/01/03 02:24:12;;;;;;;2.50;1.30;;;8.50;99.90;;;;;;5039105;28;20336;-53
2022/01/03 02:26:41;;;;;;;1.73;1.00;;;8.50;99.90;;;;;;5061224;28;20206;-55
2022/01/03 02:29:08;;;;;;;1.47;1.00;;;8.40;99.90;;;;;;5043159;28;20199;-53
2022/01/03 02:31:36;;;;;;;3.27;1.10;;;8.40;99.90;;;;;;5044393;28;20571;-53
2022/01/03 02:34:05;;;;;;;3.33;1.30;;;;;;;;;;5040038;28;20217;-55
2022/01/03 02:36:33;;;;;;;3.77;0.93;;;8.30;99.90;;;;;;5045243;28;20222;-53
2022/01/03 02:39:02;;;;;;;1.70;0.60;;;8.30;99.90;;;;;;5028433;28;20883;-54
2022/01/03 02:41:29;;;;;;;1.83;0.70;;;8.30;99.90;;;;;;5053349;28;20199;-55
2022/01/03 02:43:58;;;;;;;1.80;0.80;;;8.20;99.90;;;;;;5040968;28;20258;-53
2022/01/03 02:46:25;;;;;;;2.13;0.63;;;8.20;99.90;;;;;;5044950;28;20199;-55
2022/01/03 02:48:53;;;;;;;1.93;0.70;;;8.20;99.90;;;;;;5041109;28;20290;-52
2022/01/03 02:51:20;;;;;;;2.30;0.50;;;8.20;99.90;;;;;;5048873;28;20200;-56
2022/01/03 02:53:47;;;;;;;2.57;0.60;;;8.20;99.90;;;;;;5049511;28;20226;-55
2022/01/03 02:56:15;;;;;;;1.63;0.60;;;8.20;99.90;;;;;;5036102;28;20226;-54
2022/01/03 02:58:42;;;;;;;2.13;0.50;;;8.20;99.90;;;;;;5044986;28;20246;-55
2022/01/03 03:01:09;;;;;;;1.83;0.40;;;8.10;99.90;;;;;;5041145;28;20286;-53
2022/01/03 03:03:44;;;;;;;1.03;0.60;;;8.10;99.90;;;;;;5042176;28;20296;-55
2022/01/03 03:06:10;;;;;;;2.27;0.53;;;8.10;99.90;;;;;;5040792;28;20225;-53
2022/01/03 03:08:37;;;;;;;1.80;0.40;;;8.10;99.90;;;;;;5043549;28;20847;-56
2022/01/03 03:11:04;;;;;;;3.77;0.50;;;8.10;99.90;;;;;;5028210;28;21222;-56
2022/01/03 03:13:33;;;;;;;1.63;0.57;;;8.10;99.90;;;;;;5057968;28;20229;-56
2022/01/03 03:16:03;;;;;;;3.43;0.70;;;8.10;99.90;;;;;;5039345;28;20781;-53
2022/01/03 03:18:30;;;;;;;1.13;0.50;;;8.10;99.90;;;;;;5043413;28;20211;-50
2022/01/03 03:20:58;;;;;;;6.80;0.80;;;8.10;99.90;;;;;;5043340;28;20547;-54
2022/01/03 03:23:27;;;;;;;4.87;0.90;;;8.10;99.90;;;;;;5053184;28;20226;-55
2022/01/03 03:25:54;;;;;;;4.70;0.93;;;8.10;99.90;;;;;;5039309;28;20834;-56
2022/01/03 03:28:25;;;;;;;5.80;1.30;;;8.10;99.90;;;;;;5040524;28;20222;-54
2022/01/03 03:30:56;;;;;;;2.57;0.90;;;8.10;99.90;;;;;;5052381;28;20766;-52
2022/01/03 03:33:32;;;;;;;4.93;1.23;;;8.10;99.90;;;;;;5062081;28;20218;-54
2022/01/03 03:36:02;;;;;;;3.37;1.10;;;8.10;99.90;;;;;;5057776;28;20305;-56
2022/01/03 03:38:30;;;;;;;5.60;1.13;;;8.10;99.90;;;;;;5061960;28;20202;-54
2022/01/03 03:41:01;;;;;;;3.80;1.30;;;8.10;99.90;;;;;;5058185;28;20607;-54
2022/01/03 03:43:33;;;;;;;3.90;1.20;;;8.10;99.90;;;;;;5046724;28;20226;-53
2022/01/03 03:46:04;;;;;;;9.27;1.27;;;8.10;99.90;;;;;;5048640;28;20194;-52
2022/01/03 03:48:34;;;;;;;7.07;1.63;;;8.10;99.90;;;;;;5042899;28;20273;-55
2022/01/03 03:51:01;;;;;;;4.87;1.80;;;8.10;99.90;;;;;;5049362;28;20219;-54
2022/01/03 03:53:29;;;;;;;2.47;1.13;;;8.10;99.90;;;;;;5043259;28;20237;-52
2022/01/03 03:55:56;;;;;;;5.37;1.70;;;8.10;99.90;;;;;;5038056;28;20215;-56
2022/01/03 03:58:25;;;;;;;5.20;2.10;;;8.10;99.90;;;;;;5032014;28;20743;-56
2022/01/03 04:00:52;;;;;;;8.27;1.53;;;8.10;99.90;;;;;;5044797;28;20230;-58
2022/01/03 04:03:21;;;;;;;11.83;2.50;;;8.10;99.90;;;;;;5048258;28;20215;-56
2022/01/03 04:05:48;;;;;;;5.70;1.90;;;8.20;99.90;;;;;;5040429;28;20298;-55
2022/01/03 04:08:15;;;;;;;6.00;2.30;;;8.20;99.90;;;;;;5040750;28;20201;-55
2022/01/03 04:10:41;;;;;;;7.53;2.43;;;8.20;99.90;;;;;;5041970;28;20246;-54
2022/01/03 04:13:08;;;;;;;10.07;2.70;;;8.20;99.90;;;;;;5029800;28;20411;-55
2022/01/03 04:15:35;;;;;;;9.47;2.80;;;8.20;99.90;;;;;;5047425;28;20705;-53
2022/01/03 04:18:03;;;;;;;6.37;2.47;;;8.30;99.90;;;;;;5041544;28;20331;-54
2022/01/03 04:20:32;;;;;;;7.90;3.23;;;8.30;99.90;;;;;;5055744;28;20199;-57
2022/01/03 04:22:59;;;;;;;7.57;2.93;;;8.30;99.90;;;;;;5043172;28;20226;-56
2022/01/03 04:25:27;;;;;;;8.27;3.50;;;8.30;99.90;;;;;;5042416;28;20203;-53
2022/01/03 04:27:54;;;;;;;8.07;3.30;;;8.30;99.90;;;;;;5030814;28;20376;-54
2022/01/03 04:30:22;;;;;;;14.03;4.00;;;8.30;99.90;;;;;;5055525;28;20684;-54
2022/01/03 04:32:49;;;;;;;8.07;3.73;;;8.40;99.90;;;;;;5045136;28;20222;-54
2022/01/03 04:35:16;;;;;;;10.87;3.13;;;8.40;99.90;;;;;;5061218;28;20297;-56
2022/01/03 04:37:44;;;;;;;10.53;3.53;;;8.40;99.90;;;;;;5057916;28;20301;-52
2022/01/03 04:40:11;;;;;;;6.30;2.77;;;8.40;99.90;;;;;;5060917;28;20207;-54
2022/01/03 04:42:38;;;;;;;10.97;3.20;;;8.40;99.90;;;;;;5059130;28;20284;-54
2022/01/03 04:45:06;;;;;;;8.23;3.33;;;8.40;99.90;;;;;;5037154;28;20226;-54
2022/01/03 04:47:33;;;;;;;9.13;3.10;;;8.40;99.90;;;;;;5048372;28;20191;-56
2022/01/03 04:50:00;;;;;;;12.93;3.30;;;8.40;99.90;;;;;;5046558;28;20205;-57
2022/01/03 04:52:27;;;;;;;8.27;3.03;;;8.40;99.90;;;;;;5048358;28;20220;-55
2022/01/03 04:54:56;;;;;;;10.07;2.57;;;8.40;99.90;;;;;;5038524;28;20238;-55
2022/01/03 04:57:23;;;;;;;8.93;2.13;;;8.40;99.90;;;;;;5041546;28;20219;-56
2022/01/03 04:59:50;;;;;;;16.00;3.30;;;8.40;99.90;;;;;;5026100;28;24449;-53
2022/01/03 05:02:16;;;;;;;11.97;3.07;;;8.50;99.90;;;;;;5038641;28;20310;-55
2022/01/03 05:04:43;;;;;;;6.67;2.40;;;8.50;99.90;;;;;;5043342;28;20925;-56
2022/01/03 05:07:10;;;;;;;17.00;3.10;;;8.50;99.90;;;;;;5051332;28;20199;-56
2022/01/03 05:09:38;;;;;;;6.37;2.33;;;8.50;99.90;;;;;;5050219;28;20290;-53
2022/01/03 05:12:08;;;;;;;12.80;3.90;;;8.50;99.90;;;;;;5042984;28;20214;-56
2022/01/03 05:14:35;;;;;;;13.30;2.77;;;8.50;99.90;;;;;;5041944;28;20719;-54
2022/01/03 05:17:02;;;;;;;9.37;2.60;;;8.60;99.90;;;;;;5040638;28;20220;-55
2022/01/03 05:19:29;;;;;;;9.57;2.50;;;8.60;99.90;;;;;;5048092;28;20227;-56
2022/01/03 05:21:56;;;;;;;10.93;2.47;;;8.60;99.90;;;;;;5046552;28;20203;-57
2022/01/03 05:24:23;;;;;;;8.20;2.20;;;8.60;99.90;;;;;;5042598;28;20207;-57
2022/01/03 05:26:53;;;;;;;6.10;2.27;;;8.60;99.90;;;;;;5045274;28;20199;-56
2022/01/03 05:29:22;;;;;;;14.23;2.50;;;8.60;99.90;;;;;;5043114;28;20203;-55
2022/01/03 05:31:50;;;;;;;8.87;2.77;;;8.60;99.90;;;;;;5039792;28;20202;-57
2022/01/03 05:34:17;;;;;;;10.03;2.50;;;8.60;99.90;;;;;;5053029;28;20200;-54
2022/01/03 05:36:45;;;;;;;8.33;2.30;;;8.60;99.90;;;;;;5052044;28;20203;-54
2022/01/03 05:39:12;;;;;;;11.27;2.83;;;8.60;99.90;;;;;;5045828;28;20233;-55
2022/01/03 05:41:40;;;;;;;9.67;2.93;;;8.60;99.90;;;;;;5047014;28;20199;-53
2022/01/03 05:44:08;;;;;;;11.83;2.47;;;8.60;99.90;;;;;;5044817;28;20231;-56
2022/01/03 05:46:38;;;;;;;12.40;2.27;;;8.60;99.90;;;;;;5041530;28;20197;-54
2022/01/03 05:49:06;;;;;;;17.83;3.63;;;8.60;99.90;;;;;;5040601;28;20214;-52
2022/01/03 05:51:33;;;;;;;12.60;2.40;;;8.60;99.90;;;;;;5050865;28;20889;-52
2022/01/03 05:54:00;;;;;;;9.13;1.83;;;8.60;99.90;;;;;;5044735;28;20603;-53
2022/01/03 05:56:27;;;;;;;16.20;2.90;;;8.60;99.90;;;;;;5041989;28;20208;-56
2022/01/03 05:58:54;;;;;;;11.07;2.67;;;8.60;99.90;;;;;;5054946;28;20340;-56
2022/01/03 06:01:23;;;;;;;10.30;2.53;;;8.60;99.90;;;;;;5053585;28;20620;-55
2022/01/03 06:03:59;;;;;;;9.00;2.43;;;8.60;99.90;;;;;;5048473;28;20309;-52
2022/01/03 06:06:53;;;;;;;15.20;2.67;;;8.70;99.90;;;;;;5048282;28;20198;-54
2022/01/03 06:09:19;;;;;;;14.07;3.50;;;8.60;99.90;;;;;;5046431;28;20207;-52
2022/01/03 06:11:46;;;;;;;10.83;2.43;;;8.60;99.90;;;;;;5046217;28;20676;-54
2022/01/03 06:14:16;;;;;;;17.37;2.90;;;8.60;99.90;;;;;;5052576;28;20226;-52
2022/01/03 06:16:44;;;;;;;13.70;2.20;;;8.70;99.90;;;;;;5047210;28;20207;-56
2022/01/03 06:19:13;;;;;;;15.70;2.93;;;8.70;99.90;;;;;;5038892;28;20268;-53
2022/01/03 06:21:41;;;;;;;10.07;2.37;;;8.60;99.90;;;;;;5048852;28;20687;-53
2022/01/03 06:24:11;;;;;;;12.17;2.83;;;8.70;99.90;;;;;;5052525;28;20234;-51
2022/01/03 06:26:39;;;;;;;14.43;2.80;;;8.70;99.90;;;;;;5047623;28;20274;-54
2022/01/03 06:29:07;;;;;;;18.83;3.60;;;8.70;99.90;;;;;;5048881;28;20191;-53
2022/01/03 06:31:34;;;;;;;15.23;3.00;;;8.70;99.90;;;;;;5053343;28;20295;-53
2022/01/03 06:34:01;;;;;;;15.47;3.03;;;8.70;99.90;;;;;;5046218;28;20338;-51
2022/01/03 06:36:29;;;;;;;18.30;2.83;;;8.70;99.90;;;;;;5040339;28;20650;-51
2022/01/03 06:38:59;;;;;;;8.97;2.37;;;8.70;99.90;;;;;;5043795;28;20203;-51
2022/01/03 06:41:28;;;;;;;14.70;3.40;;;8.80;99.90;;;;;;5054076;28;20199;-51
2022/01/03 06:43:54;;;;;;;12.33;3.07;;;8.80;99.90;;;;;;5043469;28;20302;-55
2022/01/03 06:46:22;;;;;;;14.13;3.57;;;8.70;99.90;;;;;;5054266;28;20195;-51
2022/01/03 06:48:49;;;;;;;13.50;2.90;;;8.80;99.90;;;;;;5044241;28;20229;-54
2022/01/03 06:51:16;;;;;;;16.13;3.07;;;8.80;99.90;;;;;;5037608;28;20195;-52
2022/01/03 06:53:45;;;;;;;13.57;3.80;;;8.70;99.90;;;;;;5044958;28;20272;-53
2022/01/03 06:56:13;;;;;;;12.03;3.10;;;8.80;99.90;;;;;;5048238;28;20830;-48
2022/01/03 06:58:42;;;;;;;13.83;3.30;;;8.80;99.90;;;;;;5049369;28;20214;-53
2022/01/03 07:01:09;;;;;;;15.53;3.43;;;8.80;99.90;;;;;;5048005;28;20196;-52
2022/01/03 07:03:36;;;;;;;15.70;2.37;;;8.80;99.90;;;;;;5046863;28;20227;-54
2022/01/03 07:06:03;;;;;;;18.07;3.10;;;8.80;99.90;;;;;;5036240;28;20253;-50
2022/01/03 07:08:30;;;;;;;15.60;2.73;;;8.80;99.90;;;;;;5055506;28;20202;-54
2022/01/03 07:10:58;;;;;;;17.00;4.37;;;8.80;99.90;;;;;;5051658;28;20190;-55
2022/01/03 07:13:28;;;;;;;17.13;2.73;;;8.80;99.90;;;;;;5060196;28;20401;-53
2022/01/03 07:18:57;;;;;;;17.30;2.97;;;8.90;99.90;;;;;;5046351;28;20289;-53
2022/01/03 07:21:24;;;;;;;24.33;3.93;;;8.90;99.90;;;;;;5057034;28;20567;-51
2022/01/03 07:23:51;;;;;;;14.27;2.90;;;8.80;99.90;;;;;;5036206;28;20222;-55
2022/01/03 07:26:19;;;;;;;16.17;3.37;;;8.80;99.90;;;;;;5052633;28;20198;-51
2022/01/03 07:28:46;;;;;;;16.33;4.97;;;8.80;99.90;;;;;;5045015;28;20210;-52
2022/01/03 07:31:13;;;;;;;15.63;3.30;;;8.80;99.90;;;;;;5042276;28;20218;-54
2022/01/03 07:33:39;;;;;;;12.47;2.83;;;8.80;99.90;;;;;;5049386;28;20219;-55
2022/01/03 07:36:08;;;;;;;14.73;3.53;;;8.80;99.90;;;;;;5046798;28;20230;-55
2022/01/03 07:38:34;;;;;;;15.43;3.13;;;8.80;99.90;;;;;;5035541;28;20221;-51
2022/01/03 07:41:03;;;;;;;15.87;3.10;;;8.80;99.90;;;;;;5051084;28;20207;-53
2022/01/03 07:43:32;;;;;;;17.20;3.17;;;8.90;99.90;;;;;;5049485;28;20221;-49
2022/01/03 07:45:59;;;;;;;14.53;3.47;;;8.80;99.90;;;;;;5049074;28;20198;-53
2022/01/03 07:48:25;;;;;;;19.73;3.13;;;8.80;99.90;;;;;;5052094;28;20278;-51
2022/01/03 07:50:52;;;;;;;13.67;3.23;;;8.80;99.90;;;;;;5050763;28;20275;-51
2022/01/03 07:53:19;;;;;;;16.07;3.23;;;8.80;99.90;;;;;;5035700;28;20223;-48
2022/01/03 07:55:46;;;;;;;22.60;3.17;;;8.90;99.90;;;;;;5048851;28;20688;-55
2022/01/03 07:58:16;;;;;;;14.63;3.10;;;8.80;99.90;;;;;;5051712;28;20273;-50
2022/01/03 08:00:44;;;;;;;17.17;2.80;;;8.80;99.90;;;;;;5043742;28;20199;-53
2022/01/03 08:03:11;;;;;;;13.87;2.70;;;8.80;99.90;;;;;;5040230;28;20220;-53
2022/01/03 08:05:39;;;;;;;14.53;2.73;;;8.80;99.90;;;;;;5043588;28;20199;-51
2022/01/03 08:08:08;;;;;;;14.87;3.93;;;8.80;99.90;;;;;;5040995;28;20199;-55
2022/01/03 08:10:36;;;;;;;15.17;3.10;;;8.80;99.90;;;;;;5040648;28;20683;-51
2022/01/03 08:13:03;;;;;;;21.73;3.50;;;8.80;99.90;;;;;;5048186;28;20277;-55
2022/01/03 08:15:30;;;;;;;24.53;4.30;;;8.80;99.90;;;;;;5048537;28;20309;-52
2022/01/03 08:17:58;;;;;;;16.53;3.03;;;8.80;99.90;;;;;;5047994;28;20703;-51
2022/01/03 08:20:25;;;;;;;17.70;3.43;;;8.80;99.90;;;;;;5050161;28;20213;-52
2022/01/03 08:22:52;;;;;;;17.17;3.03;;;8.80;99.90;;;;;;5044448;28;20229;-49
2022/01/03 08:25:19;;;;;;;19.60;3.30;;;8.80;99.90;;;;;;5031540;28;20199;-53
2022/01/03 08:27:46;;;;;;;19.40;3.27;;;8.80;99.90;;;;;;5049219;28;20206;-52
2022/01/03 08:30:13;;;;;;;16.40;2.90;;;8.80;99.90;;;;;;5049708;28;21447;-53
2022/01/03 08:32:40;;;;;;;21.00;3.57;;;8.80;99.90;;;;;;5048374;28;20217;-51
2022/01/03 08:35:09;;;;;;;18.70;3.13;;;8.80;99.90;;;;;;5044569;28;20207;-52
2022/01/03 08:37:36;;;;;;;18.93;4.80;;;8.80;99.90;;;;;;5051931;28;20230;-53
2022/01/03 08:40:06;;;;;;;17.57;2.83;;;8.80;99.90;;;;;;5036798;28;20203;-54
2022/01/03 08:42:34;;;;;;;18.67;3.40;;;8.80;99.90;;;;;;5054550;28;20267;-54
2022/01/03 08:45:01;;;;;;;7.33;2.80;;;8.80;99.90;;;;;;5050237;28;20202;-52
2022/01/03 08:47:28;;;;;;;16.47;3.27;;;8.80;99.90;;;;;;5054340;28;20211;-53
2022/01/03 08:49:54;;;;;;;17.47;2.63;;;8.90;99.90;;;;;;5059182;28;20280;-51
2022/01/03 08:52:23;;;;;;;17.93;3.03;;;8.90;99.90;;;;;;5050165;28;20220;-51
2022/01/03 08:54:50;;;;;;;14.37;3.20;;;8.90;99.90;;;;;;5056333;28;20228;-50
2022/01/03 08:57:18;;;;;;;14.10;2.87;;;8.90;99.90;;;;;;5040481;28;20215;-53
2022/01/03 08:59:45;;;;;;;13.77;3.40;;;8.90;99.90;;;;;;5058144;28;20194;-49
2022/01/03 09:02:12;;;;;;;15.53;4.20;;;8.90;99.90;;;;;;5046565;28;20242;-53
2022/01/03 09:04:40;;;;;;;17.43;3.70;;;8.90;99.90;;;;;;5045258;28;20277;-55
2022/01/03 09:07:07;;;;;;;16.03;3.20;;;8.90;99.90;;;;;;5052769;28;20198;-49
2022/01/03 09:09:35;;;;;;;15.37;3.07;;;8.90;99.90;;;;;;5049827;28;20770;-54
2022/01/03 09:12:04;;;;;;;20.23;3.60;;;8.90;99.90;;;;;;5037112;28;20552;-52
2022/01/03 09:14:31;;;;;;;15.00;2.43;;;8.90;99.90;;;;;;5055979;28;20755;-55
2022/01/03 09:16:58;;;;;;;19.93;4.43;;;8.80;99.90;;;;;;5050357;28;20574;-50
2022/01/03 09:19:24;;;;;;;16.93;3.93;;;8.90;99.90;;;;;;5048281;28;20196;-53
2022/01/03 09:21:58;;;;;;;16.83;3.30;;;8.90;99.90;;;;;;5045067;28;20218;-54
2022/01/03 09:24:30;;;;;;;19.47;3.80;;;8.90;99.90;;;;;;5055024;28;20547;-54
2022/01/03 09:29:45;;;;;;;18.73;3.40;;;8.90;99.90;;;;;;5051033;28;20191;-54
2022/01/03 09:32:12;;;;;;;20.13;3.50;;;8.90;99.90;;;;;;5066898;28;20214;-54
2022/01/03 09:34:39;;;;;;;15.30;3.23;;;8.90;99.90;;;;;;5045534;28;20202;-53
2022/01/03 09:37:06;;;;;;;16.43;3.03;;;8.80;99.90;;;;;;5062448;28;20202;-49
2022/01/03 09:39:32;;;;;;;15.80;3.40;;;8.80;99.90;;;;;;5043988;28;20199;-52
2022/01/03 09:42:05;;;;;;;20.50;3.60;;;8.80;99.90;;;;;;5038425;28;20570;-53
2022/01/03 09:44:33;;;;;;;18.20;4.10;;;8.70;99.90;;;;;;5046507;28;20199;-53
2022/01/03 09:47:04;;;;;;;23.07;5.07;;;8.70;99.90;;;;;;5057733;28;20191;-52
2022/01/03 09:49:34;;;;;;;14.83;3.73;;;8.70;99.90;;;;;;5041694;28;20290;-53
2022/01/03 09:52:03;;;;;;;21.10;4.43;;;8.70;99.90;;;;;;5043804;28;20214;-56
2022/01/03 09:54:30;;;;;;;18.80;4.23;;;8.70;99.90;;;;;;5053922;28;20213;-54
2022/01/03 09:56:59;;;;;;;18.73;4.07;;;8.70;99.90;;;;;;5051187;28;20195;-52
2022/01/03 09:59:28;;;;;;;25.27;3.90;;;8.80;99.90;;;;;;5041407;28;20211;-50
2022/01/03 10:01:56;;;;;;;19.67;3.70;;;8.80;99.90;;;;;;5056555;28;20860;-51
2022/01/03 10:04:23;;;;;;;19.57;4.37;;;8.70;99.90;;;;;;5061012;28;20670;-53
2022/01/03 10:06:51;;;;;;;16.27;4.17;;;8.80;99.90;;;;;;5049356;28;20206;-53
2022/01/03 10:09:19;;;;;;;22.80;4.47;;;8.80;99.90;;;;;;5053177;28;20237;-55
2022/01/03 10:11:46;;;;;;;16.87;3.80;;;8.80;99.90;;;;;;5048432;28;20280;-52
2022/01/03 10:14:13;;;;;;;12.97;2.70;;;8.80;99.90;;;;;;5045246;28;20215;-50
2022/01/03 10:16:42;;;;;;;20.10;4.17;;;8.80;99.90;;;;;;5051967;28;20195;-51
2022/01/03 10:19:09;;;;;;;18.40;3.77;;;8.80;99.90;;;;;;5057593;28;20570;-51
2022/01/03 10:21:40;;;;;;;14.97;4.40;;;8.90;99.90;;;;;;5042785;28;20202;-56
2022/01/03 10:24:08;;;;;;;18.43;3.77;;;8.90;99.90;;;;;;5041079;28;20219;-51
2022/01/03 10:26:37;;;;;;;20.30;4.23;;;9.00;99.90;;;;;;5048617;28;20199;-54
2022/01/03 10:29:15;;;;;;;18.87;3.57;;;9.00;99.90;;;;;;5046733;28;20204;-54
2022/01/03 10:31:45;;;;;;;22.33;3.90;;;9.10;99.90;;;;;;5044865;28;20203;-54
2022/01/03 10:34:16;;;;;;;18.70;3.90;;;9.10;99.90;;;;;;5051549;28;20215;-53
2022/01/03 10:36:44;;;;;;;11.50;3.67;;;9.10;99.90;;;;;;5053398;28;20934;-56
2022/01/03 10:39:16;;;;;;;16.63;4.53;;;9.20;99.90;;;;;;5054122;28;20211;-51
2022/01/03 10:41:44;;;;;;;17.93;3.97;;;9.20;99.90;;;;;;5047762;28;20208;-53
2022/01/03 10:44:11;;;;;;;23.07;4.00;;;9.20;99.90;;;;;;5046313;28;20286;-50
2022/01/03 10:46:39;;;;;;;26.10;4.50;;;9.30;99.90;;;;;;5042841;28;20922;-52
2022/01/03 10:49:10;;;;;;;24.63;5.07;;;9.30;99.90;;;;;;5048356;28;20193;-51
2022/01/03 10:51:37;;;;;;;21.50;4.20;;;9.40;99.90;;;;;;5046601;28;20212;-53
2022/01/03 10:54:08;;;;;;;12.77;3.67;;;9.40;99.90;;;;;;5045218;28;20858;-51
2022/01/03 10:56:38;;;;;;;23.20;4.90;;;9.40;99.90;;;;;;5049147;28;20206;-53
2022/01/03 10:59:21;;;;;;;17.63;4.03;;;9.40;99.90;;;;;;5048703;28;20355;-53
2022/01/03 11:01:49;;;;;;;18.63;3.13;;;9.30;99.90;;;;;;5040310;28;20309;-55
2022/01/03 11:04:29;;;;;;;19.00;4.00;;;9.40;99.90;;;;;;5053361;28;20219;-56
2022/01/03 11:13:10;;;;;;;17.97;3.60;;;9.50;99.90;;;;;;5049862;28;20293;-55
2022/01/03 11:15:39;;;;;;;13.07;2.83;;;9.50;99.90;;;;;;5048100;28;20207;-53
2022/01/03 11:18:16;;;;;;;13.40;3.67;;;9.50;99.90;;;;;;5038146;28;20215;-52
2022/01/03 11:20:46;;;;;;;17.90;4.17;;;9.50;99.90;;;;;;5052367;28;20205;-56
2022/01/03 11:23:20;;;;;;;14.03;4.03;;;9.50;99.90;;;;;;5046838;28;20227;-56
2022/01/03 11:25:47;;;;;;;24.87;4.77;;;9.60;99.90;;;;;;5043395;28;20202;-53
2022/01/03 11:28:13;;;;;;;16.57;3.40;;;9.60;99.90;;;;;;5051342;28;20202;-53
2022/01/03 11:30:41;;;;;;;19.43;3.93;;;9.60;99.90;;;;;;5050889;28;20197;-50
2022/01/03 11:33:10;;;;;;;15.20;4.20;;;9.60;99.90;;;;;;5033837;28;20246;-55
2022/01/03 11:35:45;;;;;;;17.57;3.53;;;9.60;99.90;;;;;;5050621;28;20272;-55
2022/01/03 11:38:16;;;;;;;14.33;3.20;;;9.70;99.90;;;;;;5060111;28;20216;-52
2022/01/03 11:40:44;;;;;;;16.50;3.27;;;9.70;99.90;;;;;;5045285;28;20211;-56
2022/01/03 11:43:11;;;;;;;17.23;3.63;;;9.70;99.90;;;;;;5053334;28;20229;-53
2022/01/03 11:45:38;;;;;;;15.03;3.63;;;9.70;99.90;;;;;;5042428;28;20214;-55
2022/01/03 11:48:07;;;;;;;14.03;3.70;;;9.80;99.90;;;;;;5043068;28;20198;-53
2022/01/03 11:50:36;;;;;;;17.30;4.03;;;9.80;99.90;;;;;;5044828;28;20225;-53
2022/01/03 11:53:03;;;;;;;12.77;3.50;;;9.80;99.90;;;;;;5043649;28;20274;-56
2022/01/03 11:55:34;;;;;;;15.37;4.03;;;9.80;99.90;;;;;;5044635;28;20598;-56
2022/01/03 11:58:27;;;;;;;17.23;2.93;;;9.70;99.90;;;;;;5041264;28;20336;-52
2022/01/03 12:03:53;;;;;;;20.63;3.20;;;9.70;99.90;;;;;;5048984;28;20202;-55
2022/01/03 12:06:29;;;;;;;12.40;2.70;;;9.70;99.90;;;;;;5048339;28;20681;-55
2022/01/03 12:08:58;;;;;;;17.47;3.83;;;9.80;99.90;;;;;;5046090;28;20555;-56
2022/01/03 12:11:29;;;;;;;17.20;3.40;;;9.80;99.90;;;;;;5048347;28;20580;-56
2022/01/03 12:13:57;;;;;;;14.17;2.60;;;9.90;99.90;;;;;;5051594;28;20271;-53
2022/01/03 12:16:42;;;;;;;8.90;2.60;;;9.90;99.90;;;;;;5045339;28;20191;-54
2022/01/03 12:19:12;;;;;;;12.93;3.37;;;10.00;99.90;;;;;;5055205;28;20221;-55
2022/01/03 12:21:59;;;;;;;12.97;2.30;;;10.00;99.90;;;;;;5043247;28;20896;-55
2022/01/03 12:24:51;;;;;;;14.70;2.97;;;10.00;99.90;;;;;;5044292;28;20198;-57
2022/01/03 12:27:41;;;;;;;17.17;3.33;;;10.10;99.90;;;;;;5045616;28;20203;-56
2022/01/03 12:30:10;;;;;;;11.70;2.77;;;10.10;99.90;;;;;;5042630;28;20548;-57
2022/01/03 12:32:40;;;;;;;13.40;2.73;;;10.10;99.90;;;;;;5032996;28;20862;-56
2022/01/03 12:35:23;;;;;;;15.70;2.87;;;10.10;99.90;;;;;;5057611;28;20198;-55
2022/01/03 12:38:15;;;;;;;14.47;3.03;;;10.10;99.90;;;;;;5048098;28;20937;-55
2022/01/03 12:41:10;;;;;;;12.67;2.80;;;10.00;99.90;;;;;;5044984;28;20274;-56
2022/01/03 12:43:44;;;;;;;18.53;2.90;;;10.00;99.90;;;;;;5035839;28;20234;-56
2022/01/03 12:46:23;;;;;;;18.70;4.07;;;10.00;99.90;;;;;;5049392;28;20277;-44
2022/01/03 12:48:51;;;;;;;15.00;2.87;;;10.00;99.90;;;;;;5033383;28;20211;-42
2022/01/03 12:51:19;;;;;;;12.63;2.40;;;10.00;99.90;;;;;;5050215;28;20199;-41
2022/01/03 12:54:10;;;;;;;16.00;2.27;;;10.00;99.90;;;;;;5056585;28;20225;-44
2022/01/03 12:56:37;;;;;;;21.40;3.10;;;10.10;99.90;;;;;;5047750;28;20199;-41
2022/01/03 12:59:14;;;;;;;15.77;3.63;;;10.10;99.90;;;;;;5047903;28;20242;-42
2022/01/03 13:01:41;;;;;;;15.20;2.93;;;10.10;99.90;;;;;;5043179;28;20380;-42
2022/01/03 13:04:24;;;;;;;12.40;3.10;;;10.00;99.90;;;;;;5037060;28;20215;-44
2022/01/03 13:06:51;;;;;;;17.33;3.40;;;10.00;99.90;;;;;;5048225;28;20199;-42
2022/01/03 13:09:18;;;;;;;14.80;2.80;;;10.00;99.90;;;;;;5042854;28;20682;-46
2022/01/03 13:11:47;;;;;;;8.67;3.07;;;9.90;99.90;;;;;;5040229;28;20269;-43
2022/01/03 13:14:20;;;;;;;15.17;3.13;;;9.90;99.90;;;;;;5042941;28;20223;-45
2022/01/03 13:16:51;;;;;;;15.37;2.73;;;9.90;99.90;;;;;;5043513;28;20195;-43
2022/01/03 13:19:22;;;;;;;14.97;3.17;;;9.90;99.90;;;;;;5038353;28;20216;-43